BAW29D EGPH-LESO
Flight info
| Callsign | BAW29D |
|---|---|
| Flight time | 2h 0m |
| Altitude | 39000 |
| Route | TLA DCT MONTY DCT SKESO DCT KORER DCT GALOF DCT OSGOT DCT SO10E DCT SO06E |
| Aircraft | A320/M-SDE3FGHIRWY/LB1 |
Departure
| Time | 2026-04-25 12:16 |
|---|---|
| Airport | Edinburgh Airport (EGPH) |
Arrival
| Time | 2026-04-25 14:16 |
|---|---|
| Airport | San Sebastián Airport (LESO) |
| Time | Latitude | Longitude | Altitude | Speed | Heading |
|---|---|---|---|---|---|
| 2026-04-25 11:34 | 55.94658 | -3.36613 | 107 ft | 0 kts | 89° |
| 2026-04-25 12:01 | 55.94658 | -3.36614 | 79 ft | 1 kts | 89° |
| 2026-04-25 12:01 | 55.94658 | -3.36656 | 106 ft | 4 kts | 86° |
| 2026-04-25 12:02 | 55.94636 | -3.36732 | 105 ft | 4 kts | 9° |
| 2026-04-25 12:02 | 55.94625 | -3.36734 | 105 ft | 1 kts | 359° |
| 2026-04-25 12:04 | 55.94625 | -3.36733 | 105 ft | 0 kts | 359° |
| 2026-04-25 12:06 | 55.94626 | -3.36734 | 105 ft | 1 kts | 359° |
| 2026-04-25 12:06 | 55.94647 | -3.36734 | 105 ft | 5 kts | 359° |
| 2026-04-25 12:06 | 55.94694 | -3.36736 | 106 ft | 9 kts | 359° |
| 2026-04-25 12:07 | 55.94769 | -3.36761 | 103 ft | 13 kts | 331° |
| 2026-04-25 12:07 | 55.94855 | -3.36777 | 105 ft | 12 kts | 1° |
| 2026-04-25 12:07 | 55.94917 | -3.36828 | 106 ft | 11 kts | 321° |
| 2026-04-25 12:07 | 55.94903 | -3.36962 | 104 ft | 14 kts | 238° |
| 2026-04-25 12:08 | 55.94849 | -3.37120 | 105 ft | 16 kts | 239° |
| 2026-04-25 12:08 | 55.94788 | -3.37301 | 105 ft | 18 kts | 239° |
| 2026-04-25 12:08 | 55.94726 | -3.37486 | 110 ft | 18 kts | 239° |
| 2026-04-25 12:08 | 55.94660 | -3.37677 | 112 ft | 18 kts | 238° |
| 2026-04-25 12:09 | 55.94590 | -3.37886 | 112 ft | 21 kts | 239° |
| 2026-04-25 12:09 | 55.94506 | -3.38130 | 110 ft | 25 kts | 239° |
| 2026-04-25 12:09 | 55.94424 | -3.38375 | 113 ft | 18 kts | 238° |
| 2026-04-25 12:09 | 55.94374 | -3.38522 | 112 ft | 13 kts | 238° |
| 2026-04-25 12:10 | 55.94328 | -3.38658 | 118 ft | 13 kts | 239° |
| 2026-04-25 12:10 | 55.94284 | -3.38792 | 119 ft | 9 kts | 242° |
| 2026-04-25 12:10 | 55.94292 | -3.38870 | 121 ft | 6 kts | 327° |
| 2026-04-25 12:10 | 55.94294 | -3.38871 | 116 ft | 0 kts | 328° |
| 2026-04-25 12:14 | 55.94302 | -3.38881 | 118 ft | 5 kts | 328° |
| 2026-04-25 12:14 | 55.94344 | -3.38926 | 119 ft | 10 kts | 328° |
| 2026-04-25 12:14 | 55.94412 | -3.38961 | 117 ft | 9 kts | 21° |
| 2026-04-25 12:15 | 55.94433 | -3.38917 | 119 ft | 0 kts | 58° |
| 2026-04-25 12:15 | 55.94438 | -3.38902 | 117 ft | 4 kts | 59° |
| 2026-04-25 12:15 | 55.94539 | -3.38605 | 114 ft | 64 kts | 59° |
| 2026-04-25 12:15 | 55.94881 | -3.37597 | 112 ft | 124 kts | 58° |
| 2026-04-25 12:16 | 55.95349 | -3.36235 | 437 ft | 138 kts | 59° |
| 2026-04-25 12:16 | 55.95841 | -3.34782 | 1200 ft | 136 kts | 61° |
| 2026-04-25 12:16 | 55.96495 | -3.33482 | 1673 ft | 151 kts | 44° |
| 2026-04-25 12:16 | 55.97331 | -3.32134 | 2003 ft | 174 kts | 45° |
| 2026-04-25 12:17 | 55.98294 | -3.30586 | 2376 ft | 198 kts | 45° |
| 2026-04-25 12:17 | 55.99392 | -3.28878 | 2824 ft | 223 kts | 35° |
| 2026-04-25 12:17 | 56.00928 | -3.28042 | 3268 ft | 247 kts | 355° |
| 2026-04-25 12:17 | 56.02541 | -3.29191 | 3946 ft | 257 kts | 316° |
| 2026-04-25 12:18 | 56.03454 | -3.31903 | 4842 ft | 261 kts | 282° |
| 2026-04-25 12:18 | 56.03440 | -3.35142 | 5885 ft | 261 kts | 261° |
| 2026-04-25 12:18 | 56.03008 | -3.38302 | 6928 ft | 263 kts | 255° |
| 2026-04-25 12:18 | 56.02444 | -3.41453 | 7783 ft | 269 kts | 253° |
| 2026-04-25 12:19 | 56.01482 | -3.46771 | 9301 ft | 274 kts | 255° |
| 2026-04-25 12:19 | 56.00767 | -3.51114 | 10451 ft | 279 kts | 256° |
| 2026-04-25 12:19 | 56.00236 | -3.54596 | 10741 ft | 303 kts | 257° |
| 2026-04-25 12:20 | 55.99686 | -3.58380 | 11057 ft | 322 kts | 257° |
| 2026-04-25 12:20 | 55.99125 | -3.62312 | 11674 ft | 330 kts | 257° |
| 2026-04-25 12:20 | 55.98556 | -3.66310 | 12420 ft | 334 kts | 257° |
| 2026-04-25 12:20 | 55.97979 | -3.70346 | 13200 ft | 336 kts | 258° |
| 2026-04-25 12:21 | 55.97396 | -3.74420 | 13922 ft | 342 kts | 257° |
| 2026-04-25 12:21 | 55.96810 | -3.78494 | 14554 ft | 346 kts | 257° |
| 2026-04-25 12:21 | 55.96199 | -3.82731 | 15203 ft | 350 kts | 257° |
| 2026-04-25 12:21 | 55.95583 | -3.86954 | 15874 ft | 352 kts | 256° |
| 2026-04-25 12:22 | 55.95173 | -3.89760 | 16323 ft | 354 kts | 256° |
| 2026-04-25 12:22 | 55.94549 | -3.94027 | 16958 ft | 358 kts | 256° |
| 2026-04-25 12:22 | 55.93830 | -3.98290 | 17566 ft | 362 kts | 246° |
| 2026-04-25 12:22 | 55.92575 | -4.02192 | 18171 ft | 365 kts | 232° |
| 2026-04-25 12:23 | 55.90793 | -4.05423 | 18803 ft | 367 kts | 217° |
| 2026-04-25 12:23 | 55.88685 | -4.08048 | 19385 ft | 371 kts | 214° |
| 2026-04-25 12:23 | 55.86537 | -4.10667 | 19941 ft | 376 kts | 213° |
| 2026-04-25 12:23 | 55.84368 | -4.13315 | 20558 ft | 379 kts | 213° |
| 2026-04-25 12:24 | 55.82185 | -4.15988 | 21147 ft | 383 kts | 214° |
| 2026-04-25 12:24 | 55.80005 | -4.18655 | 21646 ft | 388 kts | 213° |
| 2026-04-25 12:24 | 55.77762 | -4.21356 | 22194 ft | 392 kts | 210° |
| 2026-04-25 12:24 | 55.75306 | -4.23454 | 22733 ft | 393 kts | 198° |
| 2026-04-25 12:25 | 55.72642 | -4.24601 | 23252 ft | 396 kts | 187° |
| 2026-04-25 12:25 | 55.69876 | -4.24760 | 23727 ft | 399 kts | 174° |
| 2026-04-25 12:25 | 55.67136 | -4.23920 | 24192 ft | 401 kts | 163° |
| 2026-04-25 12:25 | 55.64516 | -4.22220 | 24655 ft | 402 kts | 154° |
| 2026-04-25 12:26 | 55.62040 | -4.19872 | 25107 ft | 405 kts | 150° |
| 2026-04-25 12:26 | 55.59572 | -4.17443 | 25540 ft | 407 kts | 150° |
| 2026-04-25 12:26 | 55.57091 | -4.15014 | 25966 ft | 409 kts | 151° |
| 2026-04-25 12:26 | 55.54588 | -4.12574 | 26387 ft | 412 kts | 151° |
| 2026-04-25 12:27 | 55.52069 | -4.10127 | 26798 ft | 414 kts | 151° |
| 2026-04-25 12:27 | 55.49537 | -4.07668 | 27186 ft | 417 kts | 151° |
| 2026-04-25 12:27 | 55.46986 | -4.05187 | 27590 ft | 419 kts | 151° |
| 2026-04-25 12:27 | 55.44422 | -4.02699 | 28004 ft | 421 kts | 151° |
| 2026-04-25 12:28 | 55.41847 | -4.00205 | 28435 ft | 423 kts | 151° |
| 2026-04-25 12:28 | 55.39263 | -3.97709 | 28838 ft | 425 kts | 151° |
| 2026-04-25 12:28 | 55.36660 | -3.95198 | 29247 ft | 427 kts | 151° |
| 2026-04-25 12:28 | 55.34047 | -3.92677 | 29640 ft | 429 kts | 151° |
| 2026-04-25 12:29 | 55.31427 | -3.90149 | 30008 ft | 432 kts | 151° |
| 2026-04-25 12:29 | 55.28786 | -3.87609 | 30372 ft | 434 kts | 151° |
| 2026-04-25 12:29 | 55.26129 | -3.85061 | 30657 ft | 437 kts | 152° |
| 2026-04-25 12:29 | 55.23350 | -3.82844 | 30867 ft | 441 kts | 160° |
| 2026-04-25 12:30 | 55.20403 | -3.81407 | 31128 ft | 444 kts | 169° |
| 2026-04-25 12:30 | 55.17377 | -3.80784 | 31526 ft | 443 kts | 176° |
| 2026-04-25 12:30 | 55.14302 | -3.80452 | 31980 ft | 442 kts | 176° |
| 2026-04-25 12:30 | 55.11237 | -3.80104 | 32420 ft | 441 kts | 176° |
| 2026-04-25 12:31 | 55.08178 | -3.79744 | 32857 ft | 440 kts | 176° |
| 2026-04-25 12:31 | 55.05124 | -3.79383 | 33295 ft | 439 kts | 176° |
| 2026-04-25 12:31 | 55.02075 | -3.79027 | 33733 ft | 439 kts | 176° |
| 2026-04-25 12:31 | 54.99030 | -3.78674 | 34175 ft | 438 kts | 176° |
| 2026-04-25 12:32 | 54.95987 | -3.78324 | 34560 ft | 437 kts | 176° |
| 2026-04-25 12:32 | 54.92950 | -3.77976 | 34959 ft | 436 kts | 177° |
| 2026-04-25 12:32 | 54.89932 | -3.77631 | 35363 ft | 434 kts | 177° |
| 2026-04-25 12:32 | 54.86915 | -3.77291 | 35733 ft | 434 kts | 177° |
| 2026-04-25 12:33 | 54.83905 | -3.76953 | 36078 ft | 433 kts | 177° |
| 2026-04-25 12:33 | 54.80897 | -3.76615 | 36407 ft | 433 kts | 177° |
| 2026-04-25 12:33 | 54.77891 | -3.76280 | 36733 ft | 433 kts | 177° |
| 2026-04-25 12:33 | 54.74886 | -3.75946 | 37049 ft | 433 kts | 177° |
| 2026-04-25 12:34 | 54.71882 | -3.75614 | 37351 ft | 432 kts | 177° |
| 2026-04-25 12:34 | 54.68880 | -3.75275 | 37645 ft | 432 kts | 177° |
| 2026-04-25 12:34 | 54.65872 | -3.74934 | 37918 ft | 433 kts | 177° |
| 2026-04-25 12:34 | 54.63880 | -3.74708 | 38102 ft | 433 kts | 177° |
| 2026-04-25 12:35 | 54.59901 | -3.74258 | 38476 ft | 433 kts | 177° |
| 2026-04-25 12:35 | 54.56897 | -3.73917 | 38762 ft | 432 kts | 177° |
| 2026-04-25 12:35 | 54.53895 | -3.73574 | 39000 ft | 432 kts | 177° |
| 2026-04-25 12:35 | 54.50883 | -3.73235 | 39166 ft | 433 kts | 177° |
| 2026-04-25 12:36 | 54.47878 | -3.72904 | 39219 ft | 434 kts | 177° |
| 2026-04-25 12:36 | 54.41848 | -3.72244 | 39222 ft | 434 kts | 177° |
| 2026-04-25 12:37 | 54.35821 | -3.71583 | 39223 ft | 434 kts | 177° |
| 2026-04-25 12:37 | 54.29800 | -3.70911 | 39225 ft | 434 kts | 177° |
| 2026-04-25 12:38 | 54.23781 | -3.70243 | 39228 ft | 434 kts | 177° |
| 2026-04-25 12:38 | 54.17789 | -3.69584 | 39224 ft | 434 kts | 177° |
| 2026-04-25 12:39 | 54.11760 | -3.68931 | 39231 ft | 435 kts | 177° |
| 2026-04-25 12:39 | 54.05701 | -3.68265 | 39238 ft | 436 kts | 177° |
| 2026-04-25 12:40 | 53.99668 | -3.67608 | 39241 ft | 436 kts | 177° |
| 2026-04-25 12:40 | 53.93617 | -3.66943 | 39233 ft | 437 kts | 178° |
| 2026-04-25 12:41 | 53.87558 | -3.66278 | 39233 ft | 437 kts | 178° |
| 2026-04-25 12:41 | 53.81492 | -3.65629 | 39235 ft | 438 kts | 178° |
| 2026-04-25 12:42 | 53.75421 | -3.64989 | 39244 ft | 438 kts | 178° |
| 2026-04-25 12:42 | 53.69381 | -3.64342 | 39246 ft | 438 kts | 178° |
| 2026-04-25 12:43 | 53.63308 | -3.63685 | 39244 ft | 438 kts | 178° |
| 2026-04-25 12:43 | 53.54217 | -3.62704 | 39246 ft | 438 kts | 178° |
| 2026-04-25 12:44 | 53.48132 | -3.62068 | 39241 ft | 437 kts | 178° |
| 2026-04-25 12:45 | 53.39111 | -3.61120 | 39241 ft | 437 kts | 178° |
| 2026-04-25 12:45 | 53.30002 | -3.60154 | 39240 ft | 437 kts | 178° |
| 2026-04-25 12:46 | 53.23930 | -3.59509 | 39240 ft | 437 kts | 178° |
| 2026-04-25 12:46 | 53.17852 | -3.58868 | 39235 ft | 438 kts | 178° |
| 2026-04-25 12:47 | 53.11776 | -3.58241 | 39237 ft | 438 kts | 178° |
| 2026-04-25 12:47 | 53.05691 | -3.57612 | 39232 ft | 438 kts | 178° |
| 2026-04-25 12:48 | 52.99648 | -3.56993 | 39234 ft | 438 kts | 178° |
| 2026-04-25 12:48 | 52.93559 | -3.56367 | 39227 ft | 438 kts | 178° |
| 2026-04-25 12:49 | 52.87467 | -3.55726 | 39227 ft | 438 kts | 178° |
| 2026-04-25 12:49 | 52.81390 | -3.55087 | 39229 ft | 438 kts | 178° |
| 2026-04-25 12:50 | 52.75302 | -3.54465 | 39231 ft | 438 kts | 178° |
| 2026-04-25 12:50 | 52.69213 | -3.53857 | 39225 ft | 438 kts | 178° |
| 2026-04-25 12:51 | 52.63120 | -3.53231 | 39227 ft | 439 kts | 178° |
| 2026-04-25 12:51 | 52.57061 | -3.52598 | 39231 ft | 439 kts | 178° |
| 2026-04-25 12:52 | 52.50962 | -3.51979 | 39234 ft | 439 kts | 178° |
| 2026-04-25 12:52 | 52.44856 | -3.51364 | 39223 ft | 439 kts | 178° |
| 2026-04-25 12:53 | 52.38912 | -3.50772 | 39228 ft | 439 kts | 178° |
| 2026-04-25 12:53 | 52.32816 | -3.50161 | 39225 ft | 439 kts | 178° |
| 2026-04-25 12:54 | 52.26718 | -3.49542 | 39232 ft | 439 kts | 178° |
| 2026-04-25 12:54 | 52.20621 | -3.48929 | 39225 ft | 439 kts | 178° |
| 2026-04-25 12:55 | 52.15549 | -3.48419 | 39233 ft | 439 kts | 178° |
| 2026-04-25 12:55 | 52.08453 | -3.47704 | 39225 ft | 439 kts | 178° |
| 2026-04-25 12:56 | 52.02370 | -3.47105 | 39222 ft | 439 kts | 178° |
| 2026-04-25 12:56 | 51.96280 | -3.46509 | 39213 ft | 439 kts | 178° |
| 2026-04-25 12:57 | 51.90184 | -3.45908 | 39221 ft | 439 kts | 179° |
| 2026-04-25 12:57 | 51.84085 | -3.45309 | 39222 ft | 439 kts | 178° |
| 2026-04-25 12:58 | 51.77986 | -3.44701 | 39220 ft | 439 kts | 178° |
| 2026-04-25 12:58 | 51.71888 | -3.44105 | 39224 ft | 439 kts | 179° |
| 2026-04-25 12:59 | 51.65785 | -3.43526 | 39225 ft | 439 kts | 179° |
| 2026-04-25 12:59 | 51.59717 | -3.42935 | 39227 ft | 439 kts | 179° |
| 2026-04-25 13:00 | 51.55632 | -3.42529 | 39227 ft | 440 kts | 179° |
| 2026-04-25 13:00 | 51.47501 | -3.41722 | 39225 ft | 440 kts | 179° |
| 2026-04-25 13:01 | 51.41412 | -3.41122 | 39233 ft | 440 kts | 179° |
| 2026-04-25 13:01 | 51.35311 | -3.40539 | 39236 ft | 440 kts | 179° |
| 2026-04-25 13:02 | 51.29199 | -3.39962 | 39234 ft | 440 kts | 179° |
| 2026-04-25 13:02 | 51.23087 | -3.39379 | 39232 ft | 440 kts | 179° |
| 2026-04-25 13:03 | 51.16987 | -3.38787 | 39234 ft | 439 kts | 179° |
| 2026-04-25 13:03 | 51.10895 | -3.38214 | 39234 ft | 439 kts | 179° |
| 2026-04-25 13:04 | 51.04803 | -3.37638 | 39231 ft | 439 kts | 179° |
| 2026-04-25 13:04 | 50.98711 | -3.37060 | 39232 ft | 438 kts | 179° |
| 2026-04-25 13:05 | 50.92619 | -3.36471 | 39229 ft | 438 kts | 179° |
| 2026-04-25 13:05 | 50.86533 | -3.35901 | 39230 ft | 438 kts | 179° |
| 2026-04-25 13:06 | 50.80456 | -3.35335 | 39223 ft | 438 kts | 179° |
| 2026-04-25 13:06 | 50.74419 | -3.34758 | 39228 ft | 438 kts | 179° |
| 2026-04-25 13:07 | 50.68337 | -3.34182 | 39228 ft | 438 kts | 179° |
| 2026-04-25 13:07 | 50.62272 | -3.33616 | 39235 ft | 438 kts | 179° |
| 2026-04-25 13:08 | 50.56176 | -3.33055 | 39233 ft | 439 kts | 179° |
| 2026-04-25 13:08 | 50.50077 | -3.32492 | 39238 ft | 439 kts | 179° |
| 2026-04-25 13:09 | 50.43977 | -3.31930 | 39243 ft | 439 kts | 179° |
| 2026-04-25 13:09 | 50.37888 | -3.31353 | 39243 ft | 438 kts | 179° |
| 2026-04-25 13:10 | 50.31795 | -3.30788 | 39238 ft | 438 kts | 179° |
| 2026-04-25 13:10 | 50.25705 | -3.30229 | 39233 ft | 438 kts | 179° |
| 2026-04-25 13:11 | 50.19612 | -3.29668 | 39234 ft | 439 kts | 179° |
| 2026-04-25 13:11 | 50.13558 | -3.29118 | 39229 ft | 439 kts | 179° |
| 2026-04-25 13:12 | 50.07461 | -3.28565 | 39226 ft | 439 kts | 179° |
| 2026-04-25 13:12 | 50.03381 | -3.28196 | 39227 ft | 439 kts | 179° |
| 2026-04-25 13:13 | 49.96254 | -3.27549 | 39225 ft | 439 kts | 179° |
| 2026-04-25 13:13 | 49.90159 | -3.26994 | 39207 ft | 439 kts | 179° |
| 2026-04-25 13:14 | 49.84109 | -3.26437 | 39212 ft | 439 kts | 179° |
| 2026-04-25 13:14 | 49.78014 | -3.25685 | 39215 ft | 441 kts | 172° |
| 2026-04-25 13:15 | 49.72029 | -3.23495 | 39215 ft | 443 kts | 169° |
| 2026-04-25 13:15 | 49.66031 | -3.21236 | 39209 ft | 444 kts | 169° |
| 2026-04-25 13:16 | 49.60050 | -3.18995 | 39211 ft | 444 kts | 169° |
| 2026-04-25 13:16 | 49.54048 | -3.16756 | 39211 ft | 444 kts | 169° |
| 2026-04-25 13:17 | 49.48044 | -3.14521 | 39207 ft | 444 kts | 169° |
| 2026-04-25 13:17 | 49.42030 | -3.12294 | 39209 ft | 444 kts | 169° |
| 2026-04-25 13:18 | 49.36067 | -3.10078 | 39207 ft | 444 kts | 169° |
| 2026-04-25 13:18 | 49.30069 | -3.07843 | 39208 ft | 443 kts | 169° |
| 2026-04-25 13:19 | 49.24071 | -3.05631 | 39205 ft | 443 kts | 169° |
| 2026-04-25 13:19 | 49.19077 | -3.03804 | 39205 ft | 443 kts | 169° |
| 2026-04-25 13:20 | 49.12057 | -3.01240 | 39200 ft | 444 kts | 169° |
| 2026-04-25 13:20 | 49.06057 | -2.99033 | 39202 ft | 444 kts | 169° |
| 2026-04-25 13:21 | 49.00062 | -2.96826 | 39193 ft | 444 kts | 169° |
| 2026-04-25 13:21 | 48.94047 | -2.94624 | 39199 ft | 445 kts | 169° |
| 2026-04-25 13:22 | 48.88052 | -2.92444 | 39201 ft | 445 kts | 169° |
| 2026-04-25 13:23 | 48.79013 | -2.89182 | 39195 ft | 445 kts | 169° |
| 2026-04-25 13:23 | 48.72980 | -2.87013 | 39192 ft | 445 kts | 169° |
| 2026-04-25 13:24 | 48.67004 | -2.84856 | 39186 ft | 445 kts | 169° |
| 2026-04-25 13:24 | 48.60969 | -2.82684 | 39183 ft | 445 kts | 169° |
| 2026-04-25 13:25 | 48.54962 | -2.80533 | 39184 ft | 445 kts | 169° |
| 2026-04-25 13:25 | 48.48942 | -2.78382 | 39184 ft | 445 kts | 169° |
| 2026-04-25 13:26 | 48.42919 | -2.76229 | 39179 ft | 445 kts | 169° |
| 2026-04-25 13:26 | 48.36898 | -2.74074 | 39176 ft | 445 kts | 169° |
| 2026-04-25 13:27 | 48.30867 | -2.71924 | 39163 ft | 445 kts | 169° |
| 2026-04-25 13:27 | 48.24871 | -2.69807 | 39170 ft | 445 kts | 169° |
| 2026-04-25 13:28 | 48.18861 | -2.67679 | 39160 ft | 445 kts | 169° |
| 2026-04-25 13:28 | 48.12831 | -2.65553 | 39164 ft | 445 kts | 169° |
| 2026-04-25 13:29 | 48.06795 | -2.63444 | 39156 ft | 445 kts | 169° |
| 2026-04-25 13:29 | 48.00768 | -2.61328 | 39158 ft | 445 kts | 169° |
| 2026-04-25 13:30 | 47.91718 | -2.58154 | 39155 ft | 445 kts | 169° |
| 2026-04-25 13:31 | 47.82656 | -2.55005 | 39155 ft | 446 kts | 169° |
| 2026-04-25 13:31 | 47.76678 | -2.52927 | 39147 ft | 446 kts | 169° |
| 2026-04-25 13:32 | 47.70639 | -2.50824 | 39147 ft | 446 kts | 169° |
| 2026-04-25 13:32 | 47.64698 | -2.48187 | 39158 ft | 447 kts | 163° |
| 2026-04-25 13:33 | 47.58811 | -2.45269 | 39160 ft | 447 kts | 163° |
| 2026-04-25 13:33 | 47.52915 | -2.42372 | 39147 ft | 447 kts | 163° |
| 2026-04-25 13:34 | 47.47075 | -2.39497 | 39150 ft | 446 kts | 163° |
| 2026-04-25 13:34 | 47.41178 | -2.36592 | 39152 ft | 446 kts | 163° |
| 2026-04-25 13:35 | 47.35299 | -2.33702 | 39147 ft | 446 kts | 163° |
| 2026-04-25 13:35 | 47.29460 | -2.30843 | 39152 ft | 447 kts | 163° |
| 2026-04-25 13:36 | 47.23514 | -2.27940 | 39152 ft | 447 kts | 163° |
| 2026-04-25 13:36 | 47.17608 | -2.25073 | 39153 ft | 447 kts | 163° |
| 2026-04-25 13:37 | 47.11706 | -2.22211 | 39147 ft | 447 kts | 163° |
| 2026-04-25 13:37 | 47.05840 | -2.19362 | 39152 ft | 447 kts | 163° |
| 2026-04-25 13:38 | 46.99935 | -2.16496 | 39154 ft | 447 kts | 163° |
| 2026-04-25 13:38 | 46.94030 | -2.13648 | 39159 ft | 446 kts | 163° |
| 2026-04-25 13:39 | 46.88130 | -2.10811 | 39151 ft | 447 kts | 163° |
| 2026-04-25 13:39 | 46.82226 | -2.07977 | 39152 ft | 447 kts | 163° |
| 2026-04-25 13:40 | 46.76341 | -2.05164 | 39161 ft | 447 kts | 163° |
| 2026-04-25 13:40 | 46.70475 | -2.02360 | 39157 ft | 447 kts | 164° |
| 2026-04-25 13:41 | 46.64579 | -1.99535 | 39170 ft | 446 kts | 164° |
| 2026-04-25 13:41 | 46.58689 | -1.96731 | 39175 ft | 445 kts | 164° |
| 2026-04-25 13:42 | 46.52813 | -1.93938 | 39168 ft | 444 kts | 164° |
| 2026-04-25 13:42 | 46.46935 | -1.91155 | 39173 ft | 444 kts | 164° |
| 2026-04-25 13:43 | 46.41102 | -1.88397 | 39170 ft | 444 kts | 164° |
| 2026-04-25 13:43 | 46.35230 | -1.85630 | 39167 ft | 444 kts | 164° |
| 2026-04-25 13:44 | 46.29383 | -1.82878 | 39168 ft | 443 kts | 164° |
| 2026-04-25 13:44 | 46.23535 | -1.80128 | 39166 ft | 443 kts | 164° |
| 2026-04-25 13:45 | 46.17651 | -1.77367 | 39163 ft | 444 kts | 164° |
| 2026-04-25 13:45 | 46.11692 | -1.74584 | 39163 ft | 444 kts | 164° |
| 2026-04-25 13:46 | 46.05928 | -1.71906 | 39170 ft | 444 kts | 164° |
| 2026-04-25 13:46 | 46.00107 | -1.69196 | 39172 ft | 444 kts | 164° |
| 2026-04-25 13:47 | 45.94198 | -1.66646 | 39164 ft | 442 kts | 172° |
| 2026-04-25 13:47 | 45.88101 | -1.66028 | 39170 ft | 439 kts | 181° |
| 2026-04-25 13:48 | 45.81996 | -1.65815 | 39172 ft | 439 kts | 180° |
| 2026-04-25 13:48 | 45.75890 | -1.65591 | 39169 ft | 439 kts | 180° |
| 2026-04-25 13:49 | 45.69784 | -1.65365 | 39171 ft | 439 kts | 180° |
| 2026-04-25 13:49 | 45.63679 | -1.65142 | 39172 ft | 439 kts | 180° |
| 2026-04-25 13:50 | 45.57585 | -1.64935 | 39175 ft | 439 kts | 181° |
| 2026-04-25 13:50 | 45.51500 | -1.64733 | 39177 ft | 438 kts | 180° |
| 2026-04-25 13:51 | 45.45445 | -1.64512 | 39176 ft | 438 kts | 180° |
| 2026-04-25 13:51 | 45.39358 | -1.64299 | 39176 ft | 438 kts | 180° |
| 2026-04-25 13:52 | 45.33266 | -1.64088 | 39177 ft | 438 kts | 181° |
| 2026-04-25 13:52 | 45.27171 | -1.63880 | 38898 ft | 440 kts | 181° |
| 2026-04-25 13:52 | 45.24105 | -1.63773 | 38203 ft | 440 kts | 181° |
| 2026-04-25 13:53 | 45.21055 | -1.63662 | 37590 ft | 438 kts | 181° |
| 2026-04-25 13:53 | 45.18004 | -1.63553 | 36911 ft | 438 kts | 181° |
| 2026-04-25 13:53 | 45.14959 | -1.63447 | 36233 ft | 437 kts | 181° |
| 2026-04-25 13:53 | 45.11924 | -1.63339 | 35513 ft | 436 kts | 181° |
| 2026-04-25 13:54 | 45.08884 | -1.63229 | 34708 ft | 437 kts | 182° |
| 2026-04-25 13:54 | 45.05836 | -1.63124 | 33852 ft | 438 kts | 182° |
| 2026-04-25 13:54 | 45.02836 | -1.63023 | 32954 ft | 438 kts | 182° |
| 2026-04-25 13:54 | 44.99794 | -1.62917 | 32199 ft | 435 kts | 182° |
| 2026-04-25 13:55 | 44.96851 | -1.62814 | 31723 ft | 427 kts | 182° |
| 2026-04-25 13:55 | 44.93899 | -1.62709 | 31170 ft | 422 kts | 182° |
| 2026-04-25 13:55 | 44.90980 | -1.62604 | 30622 ft | 417 kts | 182° |
| 2026-04-25 13:55 | 44.88091 | -1.62499 | 30044 ft | 413 kts | 182° |
| 2026-04-25 13:56 | 44.85227 | -1.62398 | 29472 ft | 408 kts | 182° |
| 2026-04-25 13:56 | 44.82413 | -1.62299 | 28940 ft | 402 kts | 182° |
| 2026-04-25 13:56 | 44.79635 | -1.62205 | 28412 ft | 398 kts | 182° |
| 2026-04-25 13:56 | 44.76881 | -1.62113 | 27883 ft | 393 kts | 182° |
| 2026-04-25 13:57 | 44.74156 | -1.62022 | 27369 ft | 390 kts | 181° |
| 2026-04-25 13:57 | 44.73279 | -1.61992 | 27204 ft | 389 kts | 181° |
| 2026-04-25 13:57 | 44.68804 | -1.61839 | 26364 ft | 385 kts | 181° |
| 2026-04-25 13:57 | 44.66132 | -1.61749 | 25874 ft | 383 kts | 181° |
| 2026-04-25 13:58 | 44.63473 | -1.61661 | 25393 ft | 382 kts | 181° |
| 2026-04-25 13:58 | 44.60817 | -1.61570 | 24924 ft | 381 kts | 181° |
| 2026-04-25 13:58 | 44.58172 | -1.61481 | 24459 ft | 380 kts | 181° |
| 2026-04-25 13:58 | 44.55527 | -1.61389 | 24009 ft | 379 kts | 180° |
| 2026-04-25 13:59 | 44.52893 | -1.61298 | 23519 ft | 378 kts | 180° |
| 2026-04-25 13:59 | 44.50264 | -1.61207 | 23054 ft | 375 kts | 180° |
| 2026-04-25 13:59 | 44.47665 | -1.61120 | 22611 ft | 372 kts | 180° |
| 2026-04-25 13:59 | 44.45090 | -1.61032 | 22149 ft | 369 kts | 180° |
| 2026-04-25 14:00 | 44.44235 | -1.61002 | 21996 ft | 368 kts | 180° |
| 2026-04-25 14:00 | 44.40013 | -1.60853 | 21220 ft | 363 kts | 180° |
| 2026-04-25 14:00 | 44.37501 | -1.60767 | 20756 ft | 360 kts | 180° |
| 2026-04-25 14:00 | 44.35005 | -1.60683 | 20276 ft | 358 kts | 180° |
| 2026-04-25 14:01 | 44.32520 | -1.60599 | 19792 ft | 356 kts | 180° |
| 2026-04-25 14:01 | 44.30077 | -1.60516 | 19297 ft | 356 kts | 180° |
| 2026-04-25 14:01 | 44.27575 | -1.60430 | 18801 ft | 355 kts | 180° |
| 2026-04-25 14:01 | 44.25153 | -1.60346 | 18287 ft | 355 kts | 180° |
| 2026-04-25 14:02 | 44.22689 | -1.60264 | 17762 ft | 353 kts | 180° |
| 2026-04-25 14:02 | 44.20238 | -1.60184 | 17262 ft | 351 kts | 180° |
| 2026-04-25 14:02 | 44.17814 | -1.60106 | 16766 ft | 349 kts | 180° |
| 2026-04-25 14:02 | 44.16994 | -1.60080 | 16599 ft | 348 kts | 180° |
| 2026-04-25 14:03 | 44.12982 | -1.59947 | 15765 ft | 346 kts | 180° |
| 2026-04-25 14:03 | 44.10580 | -1.59862 | 15288 ft | 345 kts | 180° |
| 2026-04-25 14:03 | 44.08185 | -1.59780 | 14781 ft | 343 kts | 180° |
| 2026-04-25 14:03 | 44.05802 | -1.59698 | 14281 ft | 342 kts | 180° |
| 2026-04-25 14:04 | 44.03425 | -1.59616 | 13764 ft | 342 kts | 180° |
| 2026-04-25 14:04 | 44.01055 | -1.59538 | 13244 ft | 339 kts | 180° |
| 2026-04-25 14:04 | 43.98704 | -1.59462 | 12750 ft | 337 kts | 180° |
| 2026-04-25 14:04 | 43.96378 | -1.59384 | 12270 ft | 334 kts | 180° |
| 2026-04-25 14:05 | 43.94063 | -1.59305 | 11783 ft | 332 kts | 180° |
| 2026-04-25 14:05 | 43.91766 | -1.59224 | 11303 ft | 330 kts | 180° |
| 2026-04-25 14:05 | 43.89471 | -1.59145 | 10827 ft | 328 kts | 180° |
| 2026-04-25 14:05 | 43.87965 | -1.59094 | 10541 ft | 327 kts | 180° |
| 2026-04-25 14:06 | 43.85734 | -1.59020 | 10411 ft | 314 kts | 180° |
| 2026-04-25 14:06 | 43.82910 | -1.58922 | 10248 ft | 299 kts | 181° |
| 2026-04-25 14:06 | 43.81236 | -1.58866 | 10075 ft | 294 kts | 181° |
| 2026-04-25 14:06 | 43.79110 | -1.58797 | 9512 ft | 298 kts | 180° |
| 2026-04-25 14:07 | 43.77740 | -1.58752 | 9338 ft | 294 kts | 181° |
| 2026-04-25 14:07 | 43.75714 | -1.58685 | 8921 ft | 288 kts | 180° |
| 2026-04-25 14:07 | 43.73717 | -1.58617 | 8246 ft | 286 kts | 181° |
| 2026-04-25 14:07 | 43.71724 | -1.58550 | 7504 ft | 287 kts | 181° |
| 2026-04-25 14:08 | 43.69729 | -1.58484 | 6834 ft | 286 kts | 180° |
| 2026-04-25 14:08 | 43.67757 | -1.58421 | 6251 ft | 281 kts | 180° |
| 2026-04-25 14:08 | 43.65826 | -1.58358 | 5709 ft | 274 kts | 180° |
| 2026-04-25 14:08 | 43.63938 | -1.58294 | 5192 ft | 269 kts | 181° |
| 2026-04-25 14:09 | 43.62102 | -1.58479 | 4666 ft | 261 kts | 194° |
| 2026-04-25 14:09 | 43.60388 | -1.59188 | 4162 ft | 255 kts | 200° |
| 2026-04-25 14:09 | 43.58754 | -1.59919 | 3970 ft | 236 kts | 199° |
| 2026-04-25 14:09 | 43.57755 | -1.60359 | 3933 ft | 220 kts | 200° |
| 2026-04-25 14:10 | 43.55929 | -1.61159 | 3846 ft | 194 kts | 200° |
| 2026-04-25 14:10 | 43.54660 | -1.61720 | 3785 ft | 191 kts | 200° |
| 2026-04-25 14:10 | 43.53417 | -1.62273 | 3701 ft | 189 kts | 200° |
| 2026-04-25 14:10 | 43.52166 | -1.62829 | 3611 ft | 188 kts | 200° |
| 2026-04-25 14:11 | 43.50965 | -1.63358 | 3576 ft | 173 kts | 201° |
| 2026-04-25 14:11 | 43.49871 | -1.63837 | 3464 ft | 157 kts | 201° |
| 2026-04-25 14:11 | 43.48940 | -1.64420 | 3398 ft | 139 kts | 215° |
| 2026-04-25 14:11 | 43.48188 | -1.65208 | 3193 ft | 134 kts | 221° |
| 2026-04-25 14:12 | 43.47469 | -1.66007 | 2996 ft | 132 kts | 221° |
| 2026-04-25 14:12 | 43.46753 | -1.66801 | 2810 ft | 132 kts | 221° |
| 2026-04-25 14:12 | 43.46041 | -1.67591 | 2617 ft | 130 kts | 222° |
| 2026-04-25 14:12 | 43.45338 | -1.68368 | 2433 ft | 129 kts | 221° |
| 2026-04-25 14:13 | 43.44633 | -1.69149 | 2247 ft | 130 kts | 223° |
| 2026-04-25 14:13 | 43.43924 | -1.69928 | 2071 ft | 130 kts | 223° |
| 2026-04-25 14:13 | 43.43230 | -1.70713 | 1896 ft | 132 kts | 223° |
| 2026-04-25 14:13 | 43.42511 | -1.71520 | 1710 ft | 131 kts | 222° |
| 2026-04-25 14:14 | 43.41812 | -1.72296 | 1529 ft | 131 kts | 222° |
| 2026-04-25 14:14 | 43.41077 | -1.73088 | 1301 ft | 135 kts | 223° |
| 2026-04-25 14:14 | 43.40343 | -1.73889 | 1163 ft | 136 kts | 223° |
| 2026-04-25 14:14 | 43.39613 | -1.74707 | 941 ft | 135 kts | 221° |
| 2026-04-25 14:15 | 43.38883 | -1.75516 | 734 ft | 135 kts | 221° |
| 2026-04-25 14:15 | 43.38387 | -1.76058 | 630 ft | 135 kts | 221° |
| 2026-04-25 14:15 | 43.37412 | -1.77119 | 408 ft | 135 kts | 221° |
| 2026-04-25 14:15 | 43.36678 | -1.77925 | 189 ft | 134 kts | 223° |
| 2026-04-25 14:16 | 43.35955 | -1.78731 | 33 ft | 132 kts | 222° |
| 2026-04-25 14:16 | 43.35439 | -1.79283 | 20 ft | 53 kts | 220° |
| 2026-04-25 14:16 | 43.35214 | -1.79535 | 21 ft | 24 kts | 218° |
| 2026-04-25 14:16 | 43.35106 | -1.79659 | 19 ft | 15 kts | 228° |
| 2026-04-25 14:17 | 43.35075 | -1.79740 | 20 ft | 8 kts | 218° |
| 2026-04-25 14:17 | 43.35069 | -1.79699 | 20 ft | 8 kts | 37° |
| 2026-04-25 14:17 | 43.35125 | -1.79640 | 19 ft | 12 kts | 38° |
| 2026-04-25 14:17 | 43.35210 | -1.79546 | 21 ft | 20 kts | 39° |
| 2026-04-25 14:18 | 43.35334 | -1.79409 | 20 ft | 25 kts | 38° |
| 2026-04-25 14:18 | 43.35476 | -1.79254 | 19 ft | 26 kts | 38° |
| 2026-04-25 14:18 | 43.35577 | -1.79143 | 18 ft | 9 kts | 39° |
| 2026-04-25 14:18 | 43.35627 | -1.79140 | 18 ft | 9 kts | 307° |
| 2026-04-25 14:19 | 43.35647 | -1.79177 | 18 ft | 5 kts | 306° |
| 2026-04-25 14:19 | 43.35637 | -1.79231 | 18 ft | 0 kts | 217° |
| 2026-04-25 14:19 | 43.35635 | -1.79233 | 17 ft | 0 kts | 219° |